sensor_id;sensor_type;location;lat;lon;timestamp;pressure;altitude;pressure_sealevel;temperature;humidity
5238;BME280;2639;49.700;7.962;2023-07-31T03:02:36;98552.72;;;18.00;76.52
5238;BME280;2639;49.700;7.962;2023-07-31T03:03:41;98545.03;;;18.03;76.05
5238;BME280;2639;49.700;7.962;2023-07-31T03:04:43;98547.78;;;18.06;76.89
5238;BME280;2639;49.700;7.962;2023-07-31T03:05:46;98551.34;;;18.08;77.13
5238;BME280;2639;49.700;7.962;2023-07-31T03:06:48;98553.94;;;18.08;76.79
5238;BME280;2639;49.700;7.962;2023-07-31T03:07:51;98555.72;;;18.09;76.56
5238;BME280;2639;49.700;7.962;2023-07-31T03:08:53;98554.88;;;18.10;77.05
5238;BME280;2639;49.700;7.962;2023-07-31T03:09:56;98560.06;;;18.10;77.24
5238;BME280;2639;49.700;7.962;2023-07-31T03:10:58;98552.22;;;18.08;76.94
5238;BME280;2639;49.700;7.962;2023-07-31T03:12:01;98553.75;;;18.03;77.50
5238;BME280;2639;49.700;7.962;2023-07-31T03:13:03;98560.44;;;17.98;76.84
5238;BME280;2639;49.700;7.962;2023-07-31T03:14:06;98552.59;;;17.97;76.83
5238;BME280;2639;49.700;7.962;2023-07-31T03:15:09;98555.13;;;17.95;77.32
5238;BME280;2639;49.700;7.962;2023-07-31T03:16:12;98552.44;;;17.94;76.90
5238;BME280;2639;49.700;7.962;2023-07-31T03:17:15;98545.41;;;17.91;76.31
5238;BME280;2639;49.700;7.962;2023-07-31T03:18:19;98549.84;;;17.94;76.99
5238;BME280;2639;49.700;7.962;2023-07-31T03:19:21;98549.81;;;17.92;77.25
5238;BME280;2639;49.700;7.962;2023-07-31T03:20:24;98551.56;;;17.93;76.78
5238;BME280;2639;49.700;7.962;2023-07-31T03:21:26;98548.94;;;17.92;77.40
5238;BME280;2639;49.700;7.962;2023-07-31T03:22:29;98554.13;;;17.92;77.64
5238;BME280;2639;49.700;7.962;2023-07-31T03:23:31;98546.13;;;17.87;76.59
5238;BME280;2639;49.700;7.962;2023-07-31T03:24:35;98559.03;;;17.85;76.69
5238;BME280;2639;49.700;7.962;2023-07-31T03:25:37;98554.72;;;17.86;76.84
5238;BME280;2639;49.700;7.962;2023-07-31T03:26:40;98549.63;;;17.87;76.90
5238;BME280;2639;49.700;7.962;2023-07-31T03:27:46;98561.72;;;17.87;77.11
5238;BME280;2639;49.700;7.962;2023-07-31T03:28:49;98560.69;;;17.83;76.23
5238;BME280;2639;49.700;7.962;2023-07-31T03:29:51;98549.41;;;17.83;76.57
5238;BME280;2639;49.700;7.962;2023-07-31T03:30:53;98554.59;;;17.83;76.73
5238;BME280;2639;49.700;7.962;2023-07-31T03:31:56;98548.34;;;17.79;76.83
5238;BME280;2639;49.700;7.962;2023-07-31T03:32:59;98551.78;;;17.78;76.85
5238;BME280;2639;49.700;7.962;2023-07-31T03:34:03;98549.19;;;17.78;76.75
5238;BME280;2639;49.700;7.962;2023-07-31T03:35:05;98549.00;;;17.74;77.32
5238;BME280;2639;49.700;7.962;2023-07-31T03:36:10;98542.00;;;17.73;77.99
5238;BME280;2639;49.700;7.962;2023-07-31T03:37:13;98543.72;;;17.72;77.43
5238;BME280;2639;49.700;7.962;2023-07-31T03:38:15;98556.69;;;17.72;77.85
5238;BME280;2639;49.700;7.962;2023-07-31T03:39:18;98551.50;;;17.72;78.03
5238;BME280;2639;49.700;7.962;2023-07-31T03:40:20;98550.53;;;17.70;78.29
5238;BME280;2639;49.700;7.962;2023-07-31T03:41:24;98557.25;;;17.65;78.56
5238;BME280;2639;49.700;7.962;2023-07-31T03:42:26;98559.84;;;17.65;78.07
5238;BME280;2639;49.700;7.962;2023-07-31T03:43:29;98560.69;;;17.64;77.72
5238;BME280;2639;49.700;7.962;2023-07-31T03:44:31;98563.28;;;17.64;77.74
5238;BME280;2639;49.700;7.962;2023-07-31T03:45:34;98556.31;;;17.63;77.03
5238;BME280;2639;49.700;7.962;2023-07-31T03:46:36;98552.91;;;17.64;77.61
5238;BME280;2639;49.700;7.962;2023-07-31T03:47:40;98554.66;;;17.65;77.76
5238;BME280;2639;49.700;7.962;2023-07-31T03:48:42;98549.53;;;17.66;77.36
5238;BME280;2639;49.700;7.962;2023-07-31T03:49:47;98553.91;;;17.67;78.02
5238;BME280;2639;49.700;7.962;2023-07-31T03:50:49;98552.25;;;17.70;78.08
5238;BME280;2639;49.700;7.962;2023-07-31T03:51:52;98547.16;;;17.71;77.94
5238;BME280;2639;49.700;7.962;2023-07-31T03:52:54;98547.19;;;17.73;78.75
5238;BME280;2639;49.700;7.962;2023-07-31T03:53:57;98549.00;;;17.74;77.78
5238;BME280;2639;49.700;7.962;2023-07-31T03:54:59;98542.75;;;17.70;77.29
5238;BME280;2639;49.700;7.962;2023-07-31T03:56:02;98547.94;;;17.70;77.59
5238;BME280;2639;49.700;7.962;2023-07-31T03:57:05;98547.00;;;17.68;77.02
5238;BME280;2639;49.700;7.962;2023-07-31T03:58:09;98546.88;;;17.65;77.31
5238;BME280;2639;49.700;7.962;2023-07-31T03:59:10;98546.94;;;17.66;77.80
5238;BME280;2639;49.700;7.962;2023-07-31T04:00:14;98547.94;;;17.70;78.30
5238;BME280;2639;49.700;7.962;2023-07-31T04:01:16;98547.91;;;17.69;77.01
5238;BME280;2639;49.700;7.962;2023-07-31T04:02:21;98547.06;;;17.70;77.21
5238;BME280;2639;49.700;7.962;2023-07-31T04:03:23;98548.91;;;17.72;77.36
5238;BME280;2639;49.700;7.962;2023-07-31T04:04:26;98552.38;;;17.73;77.34
5238;BME280;2639;49.700;7.962;2023-07-31T04:05:32;98548.22;;;17.76;77.32
5238;BME280;2639;49.700;7.962;2023-07-31T04:06:34;98547.47;;;17.79;77.90
5238;BME280;2639;49.700;7.962;2023-07-31T04:07:37;98545.75;;;17.79;78.30
5238;BME280;2639;49.700;7.962;2023-07-31T04:08:39;98541.53;;;17.81;77.81
5238;BME280;2639;49.700;7.962;2023-07-31T04:09:42;98533.75;;;17.81;77.70
5238;BME280;2639;49.700;7.962;2023-07-31T04:10:44;98548.22;;;17.76;77.04
5238;BME280;2639;49.700;7.962;2023-07-31T04:11:47;98542.63;;;17.67;78.24
5238;BME280;2639;49.700;7.962;2023-07-31T04:12:49;98546.00;;;17.64;78.84
5238;BME280;2639;49.700;7.962;2023-07-31T04:13:52;98545.91;;;17.63;78.16
5238;BME280;2639;49.700;7.962;2023-07-31T04:14:54;98549.47;;;17.65;78.28
5238;BME280;2639;49.700;7.962;2023-07-31T04:15:57;98542.63;;;17.67;78.63
5238;BME280;2639;49.700;7.962;2023-07-31T04:16:59;98545.22;;;17.67;79.51
5238;BME280;2639;49.700;7.962;2023-07-31T04:18:02;98539.19;;;17.68;79.30
5238;BME280;2639;49.700;7.962;2023-07-31T04:19:04;98537.44;;;17.67;79.53
5238;BME280;2639;49.700;7.962;2023-07-31T04:20:07;98542.63;;;17.67;79.23
5238;BME280;2639;49.700;7.962;2023-07-31T04:21:11;98538.31;;;17.67;78.70
5238;BME280;2639;49.700;7.962;2023-07-31T04:22:13;98542.75;;;17.70;79.24
5238;BME280;2639;49.700;7.962;2023-07-31T04:23:17;98539.34;;;17.71;79.69
5238;BME280;2639;49.700;7.962;2023-07-31T04:24:19;98535.81;;;17.69;78.43
5238;BME280;2639;49.700;7.962;2023-07-31T04:25:26;98530.47;;;17.66;78.40
5238;BME280;2639;49.700;7.962;2023-07-31T04:26:28;98527.06;;;17.67;78.98
5238;BME280;2639;49.700;7.962;2023-07-31T04:27:31;98522.41;;;17.60;78.99
5238;BME280;2639;49.700;7.962;2023-07-31T04:28:33;98533.38;;;17.53;78.71
5238;BME280;2639;49.700;7.962;2023-07-31T04:29:36;98521.19;;;17.52;79.56
5238;BME280;2639;49.700;7.962;2023-07-31T04:30:38;98521.19;;;17.52;79.14
5238;BME280;2639;49.700;7.962;2023-07-31T04:31:41;98522.97;;;17.53;79.80
5238;BME280;2639;49.700;7.962;2023-07-31T04:32:44;98518.75;;;17.55;79.30
5238;BME280;2639;49.700;7.962;2023-07-31T04:33:47;98521.34;;;17.55;79.57
5238;BME280;2639;49.700;7.962;2023-07-31T04:34:49;98526.56;;;17.56;79.26
5238;BME280;2639;49.700;7.962;2023-07-31T04:35:52;98523.97;;;17.56;79.40
5238;BME280;2639;49.700;7.962;2023-07-31T04:36:56;98523.09;;;17.56;79.09
5238;BME280;2639;49.700;7.962;2023-07-31T04:37:58;98524.91;;;17.57;78.88
5238;BME280;2639;49.700;7.962;2023-07-31T04:39:01;98523.94;;;17.55;79.11
5238;BME280;2639;49.700;7.962;2023-07-31T04:40:04;98519.44;;;17.51;78.70
5238;BME280;2639;49.700;7.962;2023-07-31T04:41:07;98522.97;;;17.53;79.54
5238;BME280;2639;49.700;7.962;2023-07-31T04:42:09;98519.53;;;17.54;79.50
5238;BME280;2639;49.700;7.962;2023-07-31T04:43:12;98512.59;;;17.53;79.24
5238;BME280;2639;49.700;7.962;2023-07-31T04:44:14;98522.03;;;17.51;80.94
5238;BME280;2639;49.700;7.962;2023-07-31T04:45:17;98524.41;;;17.46;80.81
5238;BME280;2639;49.700;7.962;2023-07-31T04:46:19;98526.88;;;17.43;80.19
5238;BME280;2639;49.700;7.962;2023-07-31T04:47:22;98518.06;;;17.39;80.23
5238;BME280;2639;49.700;7.962;2023-07-31T04:48:24;98518.91;;;17.38;79.81
5238;BME280;2639;49.700;7.962;2023-07-31T04:49:27;98513.00;;;17.42;80.85
5238;BME280;2639;49.700;7.962;2023-07-31T04:50:29;98519.16;;;17.44;81.37
5238;BME280;2639;49.700;7.962;2023-07-31T04:51:33;98519.03;;;17.41;80.66
5238;BME280;2639;49.700;7.962;2023-07-31T04:52:36;98517.38;;;17.43;80.71
5238;BME280;2639;49.700;7.962;2023-07-31T04:53:39;98514.84;;;17.45;80.18
5238;BME280;2639;49.700;7.962;2023-07-31T04:54:41;98511.50;;;17.48;80.55
5238;BME280;2639;49.700;7.962;2023-07-31T04:55:44;98512.44;;;17.50;80.84
5238;BME280;2639;49.700;7.962;2023-07-31T04:56:46;98523.88;;;17.53;80.57
5238;BME280;2639;49.700;7.962;2023-07-31T04:57:49;98519.44;;;17.51;80.20
5238;BME280;2639;49.700;7.962;2023-07-31T04:58:51;98522.81;;;17.50;80.44
5238;BME280;2639;49.700;7.962;2023-07-31T04:59:54;98527.22;;;17.51;80.29
5238;BME280;2639;49.700;7.962;2023-07-31T05:04:07;98528.41;;;17.59;81.76
5238;BME280;2639;49.700;7.962;2023-07-31T05:05:10;98523.19;;;17.57;81.43
5238;BME280;2639;49.700;7.962;2023-07-31T05:06:15;98521.34;;;17.55;80.62
5238;BME280;2639;49.700;7.962;2023-07-31T05:07:18;98521.47;;;17.58;80.38
5238;BME280;2639;49.700;7.962;2023-07-31T05:08:21;98527.63;;;17.60;80.82
5238;BME280;2639;49.700;7.962;2023-07-31T05:09:25;98525.13;;;17.63;81.01
5238;BME280;2639;49.700;7.962;2023-07-31T05:10:27;98525.25;;;17.66;80.64
5238;BME280;2639;49.700;7.962;2023-07-31T05:11:30;98516.78;;;17.70;81.60
5238;BME280;2639;49.700;7.962;2023-07-31T05:12:32;98524.66;;;17.72;82.18
5238;BME280;2639;49.700;7.962;2023-07-31T05:13:35;98528.97;;;17.71;81.40
5238;BME280;2639;49.700;7.962;2023-07-31T05:14:37;98528.13;;;17.72;81.49
5238;BME280;2639;49.700;7.962;2023-07-31T05:15:40;98523.91;;;17.74;82.39
5238;BME280;2639;49.700;7.962;2023-07-31T05:16:44;98519.38;;;17.70;80.83
5238;BME280;2639;49.700;7.962;2023-07-31T05:17:46;98523.63;;;17.68;79.95
5238;BME280;2639;49.700;7.962;2023-07-31T05:18:49;98517.63;;;17.69;80.62
5238;BME280;2639;49.700;7.962;2023-07-31T05:19:51;98517.88;;;17.75;81.33
5238;BME280;2639;49.700;7.962;2023-07-31T05:20:54;98513.63;;;17.77;81.27
5238;BME280;2639;49.700;7.962;2023-07-31T05:21:56;98516.22;;;17.77;80.72
5238;BME280;2639;49.700;7.962;2023-07-31T05:22:59;98520.47;;;17.75;81.24
5238;BME280;2639;49.700;7.962;2023-07-31T05:24:02;98519.66;;;17.76;81.34
5238;BME280;2639;49.700;7.962;2023-07-31T05:25:06;98518.97;;;17.80;80.22
5238;BME280;2639;49.700;7.962;2023-07-31T05:26:08;98520.47;;;17.75;79.69
5238;BME280;2639;49.700;7.962;2023-07-31T05:27:12;98518.81;;;17.77;80.26
5238;BME280;2639;49.700;7.962;2023-07-31T05:28:16;98519.88;;;17.81;80.22
5238;BME280;2639;49.700;7.962;2023-07-31T05:29:19;98522.59;;;17.84;80.25
5238;BME280;2639;49.700;7.962;2023-07-31T05:30:21;98517.59;;;17.88;79.42
5238;BME280;2639;49.700;7.962;2023-07-31T05:31:24;98517.75;;;17.92;79.67
5238;BME280;2639;49.700;7.962;2023-07-31T05:32:26;98519.78;;;17.99;79.63
5238;BME280;2639;49.700;7.962;2023-07-31T05:33:30;98517.31;;;18.02;79.57
5238;BME280;2639;49.700;7.962;2023-07-31T05:34:32;98517.41;;;18.05;78.71
5238;BME280;2639;49.700;7.962;2023-07-31T05:35:35;98519.06;;;18.03;78.99
5238;BME280;2639;49.700;7.962;2023-07-31T05:36:37;98511.72;;;17.93;78.03
5238;BME280;2639;49.700;7.962;2023-07-31T05:37:41;98509.06;;;17.91;78.78
5238;BME280;2639;49.700;7.962;2023-07-31T05:38:43;98510.00;;;17.93;79.25
5238;BME280;2639;49.700;7.962;2023-07-31T05:39:48;98514.44;;;17.96;79.60
5238;BME280;2639;49.700;7.962;2023-07-31T05:40:50;98506.53;;;17.93;79.41
5238;BME280;2639;49.700;7.962;2023-07-31T05:41:53;98511.59;;;17.90;78.42
5238;BME280;2639;49.700;7.962;2023-07-31T05:42:55;98503.53;;;17.83;78.40
5238;BME280;2639;49.700;7.962;2023-07-31T05:43:58;98504.50;;;17.85;79.22
5238;BME280;2639;49.700;7.962;2023-07-31T05:45:00;98500.38;;;17.91;78.56
5238;BME280;2639;49.700;7.962;2023-07-31T05:46:04;98502.28;;;17.95;79.42
5238;BME280;2639;49.700;7.962;2023-07-31T05:47:07;98486.94;;;18.01;78.52
5238;BME280;2639;49.700;7.962;2023-07-31T05:48:10;98493.16;;;18.04;79.20
5238;BME280;2639;49.700;7.962;2023-07-31T05:49:12;98493.91;;;18.02;78.43
5238;BME280;2639;49.700;7.962;2023-07-31T05:50:15;98498.44;;;18.06;79.37
5238;BME280;2639;49.700;7.962;2023-07-31T05:51:18;98495.09;;;18.10;79.90
5238;BME280;2639;49.700;7.962;2023-07-31T05:52:21;98495.94;;;18.09;79.10
5238;BME280;2639;49.700;7.962;2023-07-31T05:53:23;98489.22;;;18.14;79.05
5238;BME280;2639;49.700;7.962;2023-07-31T05:54:26;98486.75;;;18.17;79.01
5238;BME280;2639;49.700;7.962;2023-07-31T05:55:29;98482.38;;;18.16;78.46
5238;BME280;2639;49.700;7.962;2023-07-31T05:56:32;98485.16;;;18.21;78.77
5238;BME280;2639;49.700;7.962;2023-07-31T05:57:36;98481.78;;;18.23;78.25
5238;BME280;2639;49.700;7.962;2023-07-31T05:58:39;98473.88;;;18.20;77.64
5238;BME280;2639;49.700;7.962;2023-07-31T05:59:41;98463.59;;;18.23;78.23
5238;BME280;2639;49.700;7.962;2023-07-31T06:00:44;98469.63;;;18.22;78.08
5238;BME280;2639;49.700;7.962;2023-07-31T06:01:46;98474.25;;;18.29;77.89
5238;BME280;2639;49.700;7.962;2023-07-31T06:02:49;98471.75;;;18.33;78.68
5238;BME280;2639;49.700;7.962;2023-07-31T06:03:51;98475.25;;;18.33;77.81
5238;BME280;2639;49.700;7.962;2023-07-31T06:04:54;98474.50;;;18.36;78.25
5238;BME280;2639;49.700;7.962;2023-07-31T06:05:56;98472.72;;;18.35;77.59
5238;BME280;2639;49.700;7.962;2023-07-31T06:07:00;98485.63;;;18.33;77.45
5238;BME280;2639;49.700;7.962;2023-07-31T06:08:02;98473.59;;;18.35;77.38
5238;BME280;2639;49.700;7.962;2023-07-31T06:09:05;98474.03;;;18.46;77.46
5238;BME280;2639;49.700;7.962;2023-07-31T06:10:07;98487.03;;;18.46;77.13
5238;BME280;2639;49.700;7.962;2023-07-31T06:11:12;98488.66;;;18.44;77.67
5238;BME280;2639;49.700;7.962;2023-07-31T06:12:14;98481.81;;;18.46;78.09
5238;BME280;2639;49.700;7.962;2023-07-31T06:13:19;98477.41;;;18.43;77.65
5238;BME280;2639;49.700;7.962;2023-07-31T06:14:21;98478.53;;;18.50;76.85
5238;BME280;2639;49.700;7.962;2023-07-31T06:15:24;98470.00;;;18.54;76.83
5238;BME280;2639;49.700;7.962;2023-07-31T06:16:26;98477.78;;;18.54;77.71
5238;BME280;2639;49.700;7.962;2023-07-31T06:17:29;98475.44;;;18.60;77.45
5238;BME280;2639;49.700;7.962;2023-07-31T06:18:32;98475.69;;;18.66;77.59
5238;BME280;2639;49.700;7.962;2023-07-31T06:19:35;98470.34;;;18.63;77.68
5238;BME280;2639;49.700;7.962;2023-07-31T06:20:37;98471.88;;;18.58;77.68
5238;BME280;2639;49.700;7.962;2023-07-31T06:21:42;98479.28;;;18.47;77.48
5238;BME280;2639;49.700;7.962;2023-07-31T06:22:45;98479.91;;;18.42;77.72
5238;BME280;2639;49.700;7.962;2023-07-31T06:23:48;98472.97;;;18.41;77.74
5238;BME280;2639;49.700;7.962;2023-07-31T06:24:50;98483.47;;;18.44;77.86
5238;BME280;2639;49.700;7.962;2023-07-31T06:25:53;98473.66;;;18.37;77.68
5238;BME280;2639;49.700;7.962;2023-07-31T06:26:57;98476.38;;;18.40;77.84
5238;BME280;2639;49.700;7.962;2023-07-31T06:28:00;98474.72;;;18.42;78.21
5238;BME280;2639;49.700;7.962;2023-07-31T06:29:02;98485.22;;;18.45;77.68
5238;BME280;2639;49.700;7.962;2023-07-31T06:30:06;98478.84;;;18.37;77.54
5238;BME280;2639;49.700;7.962;2023-07-31T06:31:08;98477.91;;;18.35;78.54
5238;BME280;2639;49.700;7.962;2023-07-31T06:32:12;98487.53;;;18.37;78.45
5238;BME280;2639;49.700;7.962;2023-07-31T06:33:14;98490.09;;;18.36;78.51
5238;BME280;2639;49.700;7.962;2023-07-31T06:34:17;98486.72;;;18.38;77.58
5238;BME280;2639;49.700;7.962;2023-07-31T06:35:19;98479.91;;;18.42;78.48
5238;BME280;2639;49.700;7.962;2023-07-31T06:36:22;98479.16;;;18.44;77.32
5238;BME280;2639;49.700;7.962;2023-07-31T06:37:24;98487.03;;;18.46;78.10
5238;BME280;2639;49.700;7.962;2023-07-31T06:38:27;98482.06;;;18.52;78.93
5238;BME280;2639;49.700;7.962;2023-07-31T06:39:29;98482.78;;;18.48;76.87
5238;BME280;2639;49.700;7.962;2023-07-31T06:40:33;98490.78;;;18.54;77.74
5238;BME280;2639;49.700;7.962;2023-07-31T06:41:35;98484.84;;;18.57;77.87
5238;BME280;2639;49.700;7.962;2023-07-31T06:42:42;98476.72;;;18.49;76.58
5238;BME280;2639;49.700;7.962;2023-07-31T06:43:44;98476.69;;;18.47;77.31
5238;BME280;2639;49.700;7.962;2023-07-31T06:44:47;98478.75;;;18.56;77.55
5238;BME280;2639;49.700;7.962;2023-07-31T06:45:49;98485.84;;;18.60;77.67
5238;BME280;2639;49.700;7.962;2023-07-31T06:46:53;98477.09;;;18.58;76.80
5238;BME280;2639;49.700;7.962;2023-07-31T06:47:55;98481.16;;;18.51;77.63
5238;BME280;2639;49.700;7.962;2023-07-31T06:49:00;98485.38;;;18.48;77.73
5238;BME280;2639;49.700;7.962;2023-07-31T06:50:02;98483.72;;;18.50;77.29
5238;BME280;2639;49.700;7.962;2023-07-31T06:51:05;98485.47;;;18.51;77.63
5238;BME280;2639;49.700;7.962;2023-07-31T06:52:09;98482.06;;;18.52;77.42
5238;BME280;2639;49.700;7.962;2023-07-31T06:53:12;98481.81;;;18.46;78.18
5238;BME280;2639;49.700;7.962;2023-07-31T06:54:14;98479.75;;;18.37;78.54
5238;BME280;2639;49.700;7.962;2023-07-31T06:55:19;98479.91;;;18.42;78.54
5238;BME280;2639;49.700;7.962;2023-07-31T06:56:21;98487.03;;;18.46;77.82
5238;BME280;2639;49.700;7.962;2023-07-31T06:57:25;98486.91;;;18.43;78.08
5238;BME280;2639;49.700;7.962;2023-07-31T06:58:28;98488.56;;;18.41;77.78
5238;BME280;2639;49.700;7.962;2023-07-31T06:59:31;98487.03;;;18.46;78.58
5238;BME280;2639;49.700;7.962;2023-07-31T07:00:33;98487.13;;;18.49;77.98
5238;BME280;2639;49.700;7.962;2023-07-31T07:01:36;98489.50;;;18.43;78.19
5238;BME280;2639;49.700;7.962;2023-07-31T07:02:38;98492.13;;;18.43;78.65
5238;BME280;2639;49.700;7.962;2023-07-31T07:03:41;98490.44;;;18.45;78.29
5238;BME280;2639;49.700;7.962;2023-07-31T07:04:43;98489.56;;;18.44;79.03
5238;BME280;2639;49.700;7.962;2023-07-31T07:05:46;98492.34;;;18.49;79.01
5238;BME280;2639;49.700;7.962;2023-07-31T07:06:48;98485.47;;;18.51;78.04
5238;BME280;2639;49.700;7.962;2023-07-31T07:07:52;98491.63;;;18.53;78.76
5238;BME280;2639;49.700;7.962;2023-07-31T07:08:54;98486.50;;;18.55;78.40
5238;BME280;2639;49.700;7.962;2023-07-31T07:09:57;98487.75;;;18.64;78.81
5238;BME280;2639;49.700;7.962;2023-07-31T07:11:01;98473.09;;;18.66;78.15
5238;BME280;2639;49.700;7.962;2023-07-31T07:12:04;98475.69;;;18.66;77.07
5238;BME280;2639;49.700;7.962;2023-07-31T07:13:06;98480.81;;;18.65;77.62
5238;BME280;2639;49.700;7.962;2023-07-31T07:14:11;98480.75;;;18.63;78.17
5238;BME280;2639;49.700;7.962;2023-07-31T07:15:13;98485.38;;;18.70;78.33
5238;BME280;2639;49.700;7.962;2023-07-31T07:16:16;98489.34;;;18.83;78.07
5238;BME280;2639;49.700;7.962;2023-07-31T07:17:18;98481.97;;;18.94;78.49
5238;BME280;2639;49.700;7.962;2023-07-31T07:18:21;98476.25;;;19.04;76.88
5238;BME280;2639;49.700;7.962;2023-07-31T07:19:23;98478.97;;;19.07;76.51
5238;BME280;2639;49.700;7.962;2023-07-31T07:20:26;98469.66;;;19.14;77.06
5238;BME280;2639;49.700;7.962;2023-07-31T07:21:28;98472.66;;;19.25;78.13
5238;BME280;2639;49.700;7.962;2023-07-31T07:22:31;98470.50;;;19.37;77.57
5238;BME280;2639;49.700;7.962;2023-07-31T07:23:33;98469.06;;;19.45;75.47
5238;BME280;2639;49.700;7.962;2023-07-31T07:24:36;98469.16;;;19.48;75.56
5238;BME280;2639;49.700;7.962;2023-07-31T07:25:38;98469.47;;;19.58;75.51
5238;BME280;2639;49.700;7.962;2023-07-31T07:26:41;98479.53;;;19.71;75.35
5238;BME280;2639;49.700;7.962;2023-07-31T07:27:43;98475.25;;;19.73;73.35
5238;BME280;2639;49.700;7.962;2023-07-31T07:28:46;98472.97;;;19.82;73.90
5238;BME280;2639;49.700;7.962;2023-07-31T07:29:51;98464.59;;;19.92;74.86
5238;BME280;2639;49.700;7.962;2023-07-31T07:30:55;98454.28;;;19.95;74.63
5238;BME280;2639;49.700;7.962;2023-07-31T07:31:57;98455.03;;;19.91;73.74
5238;BME280;2639;49.700;7.962;2023-07-31T07:33:00;98455.84;;;19.90;72.85
5238;BME280;2639;49.700;7.962;2023-07-31T07:34:02;98448.88;;;19.89;73.75
5238;BME280;2639;49.700;7.962;2023-07-31T07:35:06;98452.38;;;19.90;73.64
5238;BME280;2639;49.700;7.962;2023-07-31T07:36:08;98451.50;;;19.91;73.62
5238;BME280;2639;49.700;7.962;2023-07-31T07:37:11;98448.75;;;19.86;73.82
5238;BME280;2639;49.700;7.962;2023-07-31T07:38:13;98441.00;;;19.88;74.27
5238;BME280;2639;49.700;7.962;2023-07-31T07:39:16;98446.16;;;19.86;73.88
5238;BME280;2639;49.700;7.962;2023-07-31T07:40:19;98446.69;;;19.76;74.40
5238;BME280;2639;49.700;7.962;2023-07-31T07:41:21;98439.03;;;19.81;73.46
5238;BME280;2639;49.700;7.962;2023-07-31T07:42:24;98446.53;;;19.71;74.00
5238;BME280;2639;49.700;7.962;2023-07-31T07:43:26;98444.47;;;19.63;73.71
5238;BME280;2639;49.700;7.962;2023-07-31T07:44:29;98440.91;;;19.61;74.66
5238;BME280;2639;49.700;7.962;2023-07-31T07:45:32;98433.84;;;19.57;74.38
5238;BME280;2639;49.700;7.962;2023-07-31T07:46:35;98435.41;;;19.51;74.78
5238;BME280;2639;49.700;7.962;2023-07-31T07:47:38;98428.44;;;19.50;75.06
5238;BME280;2639;49.700;7.962;2023-07-31T07:48:41;98435.47;;;19.53;75.91
5238;BME280;2639;49.700;7.962;2023-07-31T07:49:43;98430.41;;;19.58;75.83
5238;BME280;2639;49.700;7.962;2023-07-31T07:50:53;98430.41;;;19.58;75.38
5238;BME280;2639;49.700;7.962;2023-07-31T07:51:55;98430.50;;;19.61;75.43
5238;BME280;2639;49.700;7.962;2023-07-31T07:52:58;98428.84;;;19.63;75.37
5238;BME280;2639;49.700;7.962;2023-07-31T07:54:01;98428.06;;;19.65;75.46
5238;BME280;2639;49.700;7.962;2023-07-31T07:55:04;98435.94;;;19.67;75.07
5238;BME280;2639;49.700;7.962;2023-07-31T07:56:06;98423.09;;;19.71;75.11
5238;BME280;2639;49.700;7.962;2023-07-31T07:57:09;98424.19;;;19.78;75.18
5238;BME280;2639;49.700;7.962;2023-07-31T07:58:13;98430.28;;;19.79;74.98
5238;BME280;2639;49.700;7.962;2023-07-31T07:59:16;98421.63;;;19.80;75.58
5238;BME280;2639;49.700;7.962;2023-07-31T08:00:18;98426.06;;;19.82;74.70
5238;BME280;2639;49.700;7.962;2023-07-31T08:01:23;98426.38;;;19.91;75.09
5238;BME280;2639;49.700;7.962;2023-07-31T08:02:25;98416.25;;;20.01;76.21
5238;BME280;2639;49.700;7.962;2023-07-31T08:03:28;98416.41;;;20.07;74.54
5238;BME280;2639;49.700;7.962;2023-07-31T08:04:30;98414.75;;;20.09;74.09
5238;BME280;2639;49.700;7.962;2023-07-31T08:05:33;98417.34;;;20.09;73.91
5238;BME280;2639;49.700;7.962;2023-07-31T08:06:36;98420.03;;;20.12;74.75
5238;BME280;2639;49.700;7.962;2023-07-31T08:07:39;98427.91;;;20.13;73.52
5238;BME280;2639;49.700;7.962;2023-07-31T08:08:41;98416.91;;;20.22;74.88
5238;BME280;2639;49.700;7.962;2023-07-31T08:09:44;98418.28;;;20.11;72.16
5238;BME280;2639;49.700;7.962;2023-07-31T08:10:46;98417.78;;;19.95;72.81
5238;BME280;2639;49.700;7.962;2023-07-31T08:11:50;98411.78;;;19.98;73.83
5238;BME280;2639;49.700;7.962;2023-07-31T08:12:52;98410.91;;;19.97;73.31
5238;BME280;2639;49.700;7.962;2023-07-31T08:13:55;98411.69;;;19.95;73.87
5238;BME280;2639;49.700;7.962;2023-07-31T08:14:57;98393.31;;;19.90;73.73
5238;BME280;2639;49.700;7.962;2023-07-31T08:16:01;98392.56;;;19.94;75.55
5238;BME280;2639;49.700;7.962;2023-07-31T08:17:05;98402.91;;;19.91;74.57
5238;BME280;2639;49.700;7.962;2023-07-31T08:18:08;98392.50;;;19.91;74.32
5238;BME280;2639;49.700;7.962;2023-07-31T08:19:10;98389.97;;;19.94;74.79
5238;BME280;2639;49.700;7.962;2023-07-31T08:20:13;98386.63;;;19.99;74.84
5238;BME280;2639;49.700;7.962;2023-07-31T08:21:16;98386.91;;;20.08;74.76
5238;BME280;2639;49.700;7.962;2023-07-31T08:22:18;98389.75;;;20.15;73.69
5238;BME280;2639;49.700;7.962;2023-07-31T08:23:20;98373.22;;;20.15;73.18
5238;BME280;2639;49.700;7.962;2023-07-31T08:24:23;98388.97;;;20.18;73.42
5238;BME280;2639;49.700;7.962;2023-07-31T08:25:25;98382.03;;;20.18;72.93
5238;BME280;2639;49.700;7.962;2023-07-31T08:26:28;98383.66;;;20.15;72.91
5238;BME280;2639;49.700;7.962;2023-07-31T08:27:30;98380.91;;;20.10;72.75
5238;BME280;2639;49.700;7.962;2023-07-31T08:28:33;98370.78;;;20.20;73.75
5238;BME280;2639;49.700;7.962;2023-07-31T08:29:36;98379.81;;;20.31;73.72
5238;BME280;2639;49.700;7.962;2023-07-31T08:30:39;98382.56;;;20.37;73.22
5238;BME280;2639;49.700;7.962;2023-07-31T08:31:41;98384.38;;;20.39;72.31
5238;BME280;2639;49.700;7.962;2023-07-31T08:32:46;98382.63;;;20.38;70.76
5238;BME280;2639;49.700;7.962;2023-07-31T08:33:48;98380.16;;;20.43;70.55
5238;BME280;2639;49.700;7.962;2023-07-31T08:34:51;98375.28;;;20.54;71.10
5238;BME280;2639;49.700;7.962;2023-07-31T08:35:53;98374.66;;;20.63;71.58
5238;BME280;2639;49.700;7.962;2023-07-31T08:36:56;98359.25;;;20.70;70.27
5238;BME280;2639;49.700;7.962;2023-07-31T08:37:58;98362.88;;;20.75;70.21
5238;BME280;2639;49.700;7.962;2023-07-31T08:39:02;98357.66;;;20.75;70.06
5238;BME280;2639;49.700;7.962;2023-07-31T08:40:06;98364.59;;;20.75;69.41
5238;BME280;2639;49.700;7.962;2023-07-31T08:41:09;98365.47;;;20.75;69.49
5238;BME280;2639;49.700;7.962;2023-07-31T08:42:12;98371.63;;;20.77;68.88
5238;BME280;2639;49.700;7.962;2023-07-31T08:43:15;98359.50;;;20.79;70.24
5238;BME280;2639;49.700;7.962;2023-07-31T08:44:17;98370.97;;;20.85;69.37
5238;BME280;2639;49.700;7.962;2023-07-31T08:45:20;98370.28;;;20.92;69.03
5238;BME280;2639;49.700;7.962;2023-07-31T08:46:23;98375.63;;;20.96;69.63
5238;BME280;2639;49.700;7.962;2023-07-31T08:47:27;98370.59;;;21.04;69.18